sensor_id;sensor_type;location;lat;lon;timestamp;noise_LAeq;noise_LA_min;noise_LA_max;noise_LA01;noise_LA95
70245;Laerm;57637;49.272;8.590;2023-12-20T00:00:12;50.88;49.39;58.61;;
70245;Laerm;57637;49.272;8.590;2023-12-20T00:02:38;50.96;49.36;58.89;;
70245;Laerm;57637;49.272;8.590;2023-12-20T00:05:04;50.91;49.40;58.81;;
70245;Laerm;57637;49.272;8.590;2023-12-20T00:07:29;51.03;49.30;58.66;;
70245;Laerm;57637;49.272;8.590;2023-12-20T00:09:54;51.05;49.50;58.59;;
70245;Laerm;57637;49.272;8.590;2023-12-20T00:12:20;51.00;49.37;58.81;;
70245;Laerm;57637;49.272;8.590;2023-12-20T00:14:45;50.95;49.45;58.57;;
70245;Laerm;57637;49.272;8.590;2023-12-20T00:17:14;51.00;49.12;59.21;;
70245;Laerm;57637;49.272;8.590;2023-12-20T00:19:40;50.88;49.20;58.52;;
70245;Laerm;57637;49.272;8.590;2023-12-20T00:22:05;50.91;49.26;59.11;;
70245;Laerm;57637;49.272;8.590;2023-12-20T00:24:30;51.03;49.20;58.63;;
70245;Laerm;57637;49.272;8.590;2023-12-20T00:26:56;51.00;49.42;58.59;;
70245;Laerm;57637;49.272;8.590;2023-12-20T00:29:21;50.96;49.36;58.52;;
70245;Laerm;57637;49.272;8.590;2023-12-20T00:31:46;50.94;49.24;58.85;;
70245;Laerm;57637;49.272;8.590;2023-12-20T00:34:12;50.96;49.25;58.53;;
70245;Laerm;57637;49.272;8.590;2023-12-20T00:36:37;50.80;49.17;58.78;;
70245;Laerm;57637;49.272;8.590;2023-12-20T00:39:03;50.88;49.29;58.48;;
70245;Laerm;57637;49.272;8.590;2023-12-20T00:41:28;50.81;49.01;58.40;;
70245;Laerm;57637;49.272;8.590;2023-12-20T00:43:53;50.75;48.80;58.61;;
70245;Laerm;57637;49.272;8.590;2023-12-20T00:46:19;50.64;49.19;58.93;;
70245;Laerm;57637;49.272;8.590;2023-12-20T00:48:44;50.76;49.05;58.27;;
70245;Laerm;57637;49.272;8.590;2023-12-20T00:51:10;50.92;49.20;58.30;;
70245;Laerm;57637;49.272;8.590;2023-12-20T00:53:36;50.77;49.21;58.05;;
70245;Laerm;57637;49.272;8.590;2023-12-20T00:56:01;50.71;48.96;58.27;;
70245;Laerm;57637;49.272;8.590;2023-12-20T00:58:27;50.76;49.10;58.59;;
70245;Laerm;57637;49.272;8.590;2023-12-20T01:00:54;50.72;48.84;58.34;;
70245;Laerm;57637;49.272;8.590;2023-12-20T01:03:19;50.73;49.16;58.58;;
70245;Laerm;57637;49.272;8.590;2023-12-20T01:05:45;50.82;49.15;57.68;;
70245;Laerm;57637;49.272;8.590;2023-12-20T01:08:10;50.77;49.12;57.32;;
70245;Laerm;57637;49.272;8.590;2023-12-20T01:10:36;50.67;49.02;58.47;;
70245;Laerm;57637;49.272;8.590;2023-12-20T01:13:01;50.77;49.19;60.80;;
70245;Laerm;57637;49.272;8.590;2023-12-20T01:15:26;50.73;49.21;58.41;;
70245;Laerm;57637;49.272;8.590;2023-12-20T01:17:52;50.74;49.19;58.42;;
70245;Laerm;57637;49.272;8.590;2023-12-20T01:20:17;50.78;49.18;58.57;;
70245;Laerm;57637;49.272;8.590;2023-12-20T01:22:44;50.73;49.19;58.13;;
70245;Laerm;57637;49.272;8.590;2023-12-20T01:25:11;50.55;48.90;58.39;;
70245;Laerm;57637;49.272;8.590;2023-12-20T01:27:36;50.32;48.95;57.84;;
70245;Laerm;57637;49.272;8.590;2023-12-20T01:30:02;50.37;48.88;57.66;;
70245;Laerm;57637;49.272;8.590;2023-12-20T01:32:27;50.59;48.76;58.93;;
70245;Laerm;57637;49.272;8.590;2023-12-20T01:34:52;50.56;48.82;58.08;;
70245;Laerm;57637;49.272;8.590;2023-12-20T01:37:18;50.60;48.80;57.86;;
70245;Laerm;57637;49.272;8.590;2023-12-20T01:39:43;50.50;48.80;58.47;;
70245;Laerm;57637;49.272;8.590;2023-12-20T01:42:08;50.76;48.93;58.76;;
70245;Laerm;57637;49.272;8.590;2023-12-20T01:44:34;50.64;48.84;58.92;;
70245;Laerm;57637;49.272;8.590;2023-12-20T01:47:00;50.61;48.95;58.44;;
70245;Laerm;57637;49.272;8.590;2023-12-20T01:49:25;50.71;49.26;57.98;;
70245;Laerm;57637;49.272;8.590;2023-12-20T01:51:51;50.76;49.09;58.73;;
70245;Laerm;57637;49.272;8.590;2023-12-20T01:54:17;50.83;49.14;58.60;;
70245;Laerm;57637;49.272;8.590;2023-12-20T01:56:44;50.74;49.20;58.82;;
70245;Laerm;57637;49.272;8.590;2023-12-20T01:59:10;50.78;49.04;58.49;;
70245;Laerm;57637;49.272;8.590;2023-12-20T02:01:36;50.58;49.01;58.49;;
70245;Laerm;57637;49.272;8.590;2023-12-20T02:04:02;50.61;48.96;57.65;;
70245;Laerm;57637;49.272;8.590;2023-12-20T02:06:30;50.56;49.12;58.41;;
70245;Laerm;57637;49.272;8.590;2023-12-20T02:08:58;50.72;49.04;58.44;;
70245;Laerm;57637;49.272;8.590;2023-12-20T02:11:25;50.50;48.98;58.39;;
70245;Laerm;57637;49.272;8.590;2023-12-20T02:13:50;50.60;48.81;58.45;;
70245;Laerm;57637;49.272;8.590;2023-12-20T02:16:16;50.59;48.77;58.14;;
70245;Laerm;57637;49.272;8.590;2023-12-20T02:18:42;50.59;49.00;58.86;;
70245;Laerm;57637;49.272;8.590;2023-12-20T02:21:09;50.57;48.64;57.71;;
70245;Laerm;57637;49.272;8.590;2023-12-20T02:23:34;50.73;48.94;58.42;;
70245;Laerm;57637;49.272;8.590;2023-12-20T02:26:00;50.89;49.16;58.16;;
70245;Laerm;57637;49.272;8.590;2023-12-20T02:28:26;50.88;49.24;60.44;;
70245;Laerm;57637;49.272;8.590;2023-12-20T02:30:51;50.88;49.06;57.69;;
70245;Laerm;57637;49.272;8.590;2023-12-20T02:33:17;50.84;49.09;58.17;;
70245;Laerm;57637;49.272;8.590;2023-12-20T02:35:42;50.90;49.18;57.87;;
70245;Laerm;57637;49.272;8.590;2023-12-20T02:38:07;50.84;49.11;58.21;;
70245;Laerm;57637;49.272;8.590;2023-12-20T02:40:33;50.81;49.15;57.99;;
70245;Laerm;57637;49.272;8.590;2023-12-20T02:42:58;51.01;49.15;58.73;;
70245;Laerm;57637;49.272;8.590;2023-12-20T02:45:23;51.11;49.20;58.96;;
70245;Laerm;57637;49.272;8.590;2023-12-20T02:47:49;51.07;49.26;58.97;;
70245;Laerm;57637;49.272;8.590;2023-12-20T02:50:14;50.90;49.23;58.78;;
70245;Laerm;57637;49.272;8.590;2023-12-20T02:52:39;51.24;48.96;58.81;;
70245;Laerm;57637;49.272;8.590;2023-12-20T02:55:05;51.17;49.45;58.65;;
70245;Laerm;57637;49.272;8.590;2023-12-20T02:57:30;51.03;49.15;58.34;;
70245;Laerm;57637;49.272;8.590;2023-12-20T02:59:57;50.88;49.11;58.20;;
70245;Laerm;57637;49.272;8.590;2023-12-20T03:02:22;50.80;49.22;58.36;;
70245;Laerm;57637;49.272;8.590;2023-12-20T03:04:47;50.82;49.18;58.98;;
70245;Laerm;57637;49.272;8.590;2023-12-20T03:07:13;50.85;49.23;58.23;;
70245;Laerm;57637;49.272;8.590;2023-12-20T03:09:38;50.82;48.95;58.55;;
70245;Laerm;57637;49.272;8.590;2023-12-20T03:12:04;50.74;49.06;58.10;;
70245;Laerm;57637;49.272;8.590;2023-12-20T03:14:29;50.78;49.37;58.20;;
70245;Laerm;57637;49.272;8.590;2023-12-20T03:16:54;50.81;49.05;58.49;;
70245;Laerm;57637;49.272;8.590;2023-12-20T03:19:20;50.64;48.74;58.04;;
70245;Laerm;57637;49.272;8.590;2023-12-20T03:21:45;50.74;49.10;58.39;;
70245;Laerm;57637;49.272;8.590;2023-12-20T03:24:11;50.83;49.08;58.48;;
70245;Laerm;57637;49.272;8.590;2023-12-20T03:26:36;50.84;49.41;58.23;;
70245;Laerm;57637;49.272;8.590;2023-12-20T03:29:01;50.84;49.40;58.54;;
70245;Laerm;57637;49.272;8.590;2023-12-20T03:31:27;50.88;49.33;57.99;;
70245;Laerm;57637;49.272;8.590;2023-12-20T03:33:52;50.87;49.17;58.08;;
70245;Laerm;57637;49.272;8.590;2023-12-20T03:36:19;50.79;49.21;58.14;;
70245;Laerm;57637;49.272;8.590;2023-12-20T03:38:44;50.83;49.44;58.14;;
70245;Laerm;57637;49.272;8.590;2023-12-20T03:41:10;50.81;49.23;58.01;;
70245;Laerm;57637;49.272;8.590;2023-12-20T03:43:35;50.94;49.16;58.38;;
70245;Laerm;57637;49.272;8.590;2023-12-20T03:46:01;51.26;49.53;59.07;;
70245;Laerm;57637;49.272;8.590;2023-12-20T03:48:28;51.14;49.47;59.20;;
70245;Laerm;57637;49.272;8.590;2023-12-20T03:50:54;51.02;49.31;58.28;;
70245;Laerm;57637;49.272;8.590;2023-12-20T03:53:19;51.02;49.22;58.53;;
70245;Laerm;57637;49.272;8.590;2023-12-20T03:55:45;50.82;49.22;58.01;;
70245;Laerm;57637;49.272;8.590;2023-12-20T03:58:10;50.83;49.17;58.22;;
70245;Laerm;57637;49.272;8.590;2023-12-20T04:00:35;50.81;49.28;58.29;;
70245;Laerm;57637;49.272;8.590;2023-12-20T04:03:01;50.98;49.25;59.80;;
70245;Laerm;57637;49.272;8.590;2023-12-20T04:05:26;51.07;49.29;53.10;;
70245;Laerm;57637;49.272;8.590;2023-12-20T04:07:51;51.01;49.03;53.02;;
70245;Laerm;57637;49.272;8.590;2023-12-20T04:10:17;51.10;49.15;53.18;;
70245;Laerm;57637;49.272;8.590;2023-12-20T04:12:42;51.18;49.53;53.17;;
70245;Laerm;57637;49.272;8.590;2023-12-20T04:15:08;51.10;49.45;53.59;;
70245;Laerm;57637;49.272;8.590;2023-12-20T04:17:35;51.12;49.39;53.10;;
70245;Laerm;57637;49.272;8.590;2023-12-20T04:20:01;51.21;49.17;53.36;;
70245;Laerm;57637;49.272;8.590;2023-12-20T04:22:26;51.26;49.67;53.24;;
70245;Laerm;57637;49.272;8.590;2023-12-20T04:24:52;51.31;49.39;54.91;;
70245;Laerm;57637;49.272;8.590;2023-12-20T04:27:17;51.34;49.69;54.18;;
70245;Laerm;57637;49.272;8.590;2023-12-20T04:29:43;51.26;49.44;54.59;;
70245;Laerm;57637;49.272;8.590;2023-12-20T04:32:08;51.19;49.00;54.20;;
70245;Laerm;57637;49.272;8.590;2023-12-20T04:34:33;50.54;48.64;53.69;;
70245;Laerm;57637;49.272;8.590;2023-12-20T04:36:59;50.14;48.69;52.55;;
70245;Laerm;57637;49.272;8.590;2023-12-20T04:39:24;50.08;48.50;52.20;;
70245;Laerm;57637;49.272;8.590;2023-12-20T04:41:49;50.17;48.57;52.42;;
70245;Laerm;57637;49.272;8.590;2023-12-20T04:44:15;50.16;48.47;52.90;;
70245;Laerm;57637;49.272;8.590;2023-12-20T04:46:40;50.14;48.62;53.63;;
70245;Laerm;57637;49.272;8.590;2023-12-20T04:49:06;50.18;48.60;52.50;;
70245;Laerm;57637;49.272;8.590;2023-12-20T04:51:34;50.03;48.51;53.30;;
70245;Laerm;57637;49.272;8.590;2023-12-20T04:54:00;50.08;48.22;52.37;;
70245;Laerm;57637;49.272;8.590;2023-12-20T04:56:26;50.13;48.32;52.27;;
70245;Laerm;57637;49.272;8.590;2023-12-20T04:58:51;50.14;48.51;53.40;;
70245;Laerm;57637;49.272;8.590;2023-12-20T05:01:17;50.05;48.40;52.48;;
70245;Laerm;57637;49.272;8.590;2023-12-20T05:03:42;49.99;48.22;53.65;;
70245;Laerm;57637;49.272;8.590;2023-12-20T05:06:09;50.16;48.24;52.51;;
70245;Laerm;57637;49.272;8.590;2023-12-20T05:08:34;49.99;48.15;53.40;;
70245;Laerm;57637;49.272;8.590;2023-12-20T05:10:59;50.22;48.52;53.17;;
70245;Laerm;57637;49.272;8.590;2023-12-20T05:13:25;50.34;48.63;53.02;;
70245;Laerm;57637;49.272;8.590;2023-12-20T05:15:50;50.32;48.50;53.06;;
70245;Laerm;57637;49.272;8.590;2023-12-20T05:18:16;50.00;48.49;52.34;;
70245;Laerm;57637;49.272;8.590;2023-12-20T05:20:41;49.83;48.50;52.50;;
70245;Laerm;57637;49.272;8.590;2023-12-20T05:23:07;50.01;48.47;52.45;;
70245;Laerm;57637;49.272;8.590;2023-12-20T05:25:32;49.93;48.45;52.20;;
70245;Laerm;57637;49.272;8.590;2023-12-20T05:27:58;49.65;48.42;51.84;;
70245;Laerm;57637;49.272;8.590;2023-12-20T05:30:23;50.06;48.49;52.19;;
70245;Laerm;57637;49.272;8.590;2023-12-20T05:32:49;51.49;49.30;53.40;;
70245;Laerm;57637;49.272;8.590;2023-12-20T05:35:14;51.01;48.94;53.91;;
70245;Laerm;57637;49.272;8.590;2023-12-20T05:37:41;51.34;49.07;53.82;;
70245;Laerm;57637;49.272;8.590;2023-12-20T05:40:06;50.38;48.46;53.19;;
70245;Laerm;57637;49.272;8.590;2023-12-20T05:42:35;50.14;48.76;52.49;;
70245;Laerm;57637;49.272;8.590;2023-12-20T05:45:01;50.15;48.19;52.76;;
70245;Laerm;57637;49.272;8.590;2023-12-20T05:47:26;50.14;48.24;53.72;;
70245;Laerm;57637;49.272;8.590;2023-12-20T05:49:51;50.45;48.43;53.20;;
70245;Laerm;57637;49.272;8.590;2023-12-20T05:52:17;50.17;48.42;53.18;;
70245;Laerm;57637;49.272;8.590;2023-12-20T05:54:42;50.53;48.37;53.75;;
70245;Laerm;57637;49.272;8.590;2023-12-20T05:57:07;50.66;48.67;54.20;;
70245;Laerm;57637;49.272;8.590;2023-12-20T05:59:33;50.36;48.30;54.96;;
70245;Laerm;57637;49.272;8.590;2023-12-20T06:01:58;50.26;48.41;54.61;;
70245;Laerm;57637;49.272;8.590;2023-12-20T06:04:23;50.51;48.71;53.77;;
70245;Laerm;57637;49.272;8.590;2023-12-20T06:06:49;50.41;48.67;54.18;;
70245;Laerm;57637;49.272;8.590;2023-12-20T06:09:14;50.68;48.36;53.61;;
70245;Laerm;57637;49.272;8.590;2023-12-20T06:11:40;51.64;49.06;54.71;;
70245;Laerm;57637;49.272;8.590;2023-12-20T06:14:06;52.23;49.67;54.39;;
70245;Laerm;57637;49.272;8.590;2023-12-20T06:16:31;52.08;49.47;54.43;;
70245;Laerm;57637;49.272;8.590;2023-12-20T06:18:56;52.21;49.14;54.62;;
70245;Laerm;57637;49.272;8.590;2023-12-20T06:21:22;51.24;48.91;54.65;;
70245;Laerm;57637;49.272;8.590;2023-12-20T06:23:47;51.20;49.05;54.03;;
70245;Laerm;57637;49.272;8.590;2023-12-20T06:26:12;52.17;49.85;54.87;;
70245;Laerm;57637;49.272;8.590;2023-12-20T06:28:38;51.40;49.17;54.63;;
70245;Laerm;57637;49.272;8.590;2023-12-20T06:31:03;51.74;48.99;54.46;;
70245;Laerm;57637;49.272;8.590;2023-12-20T06:33:29;51.81;49.43;54.46;;
70245;Laerm;57637;49.272;8.590;2023-12-20T06:35:56;51.72;49.10;54.61;;
70245;Laerm;57637;49.272;8.590;2023-12-20T06:38:21;52.01;49.51;54.51;;
70245;Laerm;57637;49.272;8.590;2023-12-20T06:40:47;51.97;49.67;54.27;;
70245;Laerm;57637;49.272;8.590;2023-12-20T06:43:12;51.25;49.47;53.41;;
70245;Laerm;57637;49.272;8.590;2023-12-20T06:45:38;51.80;49.54;54.42;;
70245;Laerm;57637;49.272;8.590;2023-12-20T06:48:04;51.61;49.46;53.99;;
70245;Laerm;57637;49.272;8.590;2023-12-20T06:50:30;52.01;49.63;55.71;;
70245;Laerm;57637;49.272;8.590;2023-12-20T06:52:55;52.07;49.67;54.39;;
70245;Laerm;57637;49.272;8.590;2023-12-20T06:55:21;51.95;49.32;54.89;;
70245;Laerm;57637;49.272;8.590;2023-12-20T06:57:46;52.09;49.93;54.38;;
70245;Laerm;57637;49.272;8.590;2023-12-20T07:00:12;51.93;49.49;54.11;;
70245;Laerm;57637;49.272;8.590;2023-12-20T07:02:37;52.35;49.79;55.06;;
70245;Laerm;57637;49.272;8.590;2023-12-20T07:05:03;51.44;49.55;54.15;;
70245;Laerm;57637;49.272;8.590;2023-12-20T07:07:29;52.17;49.46;54.61;;
70245;Laerm;57637;49.272;8.590;2023-12-20T07:09:55;52.32;49.71;54.65;;
70245;Laerm;57637;49.272;8.590;2023-12-20T07:12:20;52.38;50.18;54.56;;
70245;Laerm;57637;49.272;8.590;2023-12-20T07:14:46;52.24;50.14;54.58;;
70245;Laerm;57637;49.272;8.590;2023-12-20T07:17:14;52.19;50.00;54.90;;
70245;Laerm;57637;49.272;8.590;2023-12-20T07:19:41;52.34;49.91;55.07;;
70245;Laerm;57637;49.272;8.590;2023-12-20T07:22:07;52.22;49.93;54.27;;
70245;Laerm;57637;49.272;8.590;2023-12-20T07:24:33;52.01;49.69;55.43;;
70245;Laerm;57637;49.272;8.590;2023-12-20T07:27:01;51.36;49.54;53.60;;
70245;Laerm;57637;49.272;8.590;2023-12-20T07:29:27;51.36;49.42;53.63;;
70245;Laerm;57637;49.272;8.590;2023-12-20T07:31:53;52.24;49.68;55.15;;
70245;Laerm;57637;49.272;8.590;2023-12-20T07:34:21;52.45;50.05;54.54;;
70245;Laerm;57637;49.272;8.590;2023-12-20T07:36:47;52.39;50.01;54.68;;
70245;Laerm;57637;49.272;8.590;2023-12-20T07:45:38;52.34;50.13;54.81;;
70245;Laerm;57637;49.272;8.590;2023-12-20T07:52:16;51.72;49.41;54.94;;
70245;Laerm;57637;49.272;8.590;2023-12-20T07:55:23;51.90;49.08;54.49;;
70245;Laerm;57637;49.272;8.590;2023-12-20T07:58:08;51.56;49.34;54.63;;
70245;Laerm;57637;49.272;8.590;2023-12-20T08:00:34;51.95;49.35;54.12;;
70245;Laerm;57637;49.272;8.590;2023-12-20T08:02:59;51.35;49.38;53.80;;
70245;Laerm;57637;49.272;8.590;2023-12-20T08:05:24;51.22;49.24;53.99;;
70245;Laerm;57637;49.272;8.590;2023-12-20T08:07:51;51.70;49.15;54.41;;
70245;Laerm;57637;49.272;8.590;2023-12-20T08:10:29;51.92;49.49;54.08;;
70245;Laerm;57637;49.272;8.590;2023-12-20T08:13:17;51.30;49.15;53.99;;
70245;Laerm;57637;49.272;8.590;2023-12-20T08:16:01;51.34;49.06;53.99;;
70245;Laerm;57637;49.272;8.590;2023-12-20T08:18:45;51.88;49.01;55.20;;
70245;Laerm;57637;49.272;8.590;2023-12-20T08:21:11;51.72;49.23;54.99;;
70245;Laerm;57637;49.272;8.590;2023-12-20T08:23:42;51.10;49.40;54.63;;
70245;Laerm;57637;49.272;8.590;2023-12-20T08:26:35;51.88;49.40;54.06;;
70245;Laerm;57637;49.272;8.590;2023-12-20T08:29:01;51.19;49.66;55.04;;
70245;Laerm;57637;49.272;8.590;2023-12-20T08:31:27;51.25;49.71;54.81;;
70245;Laerm;57637;49.272;8.590;2023-12-20T08:33:53;52.03;49.69;55.96;;
70245;Laerm;57637;49.272;8.590;2023-12-20T08:36:26;52.20;50.31;55.70;;
70245;Laerm;57637;49.272;8.590;2023-12-20T08:38:51;52.22;50.07;54.32;;
70245;Laerm;57637;49.272;8.590;2023-12-20T08:41:18;51.28;49.26;53.73;;
70245;Laerm;57637;49.272;8.590;2023-12-20T08:43:45;51.31;49.37;54.26;;
70245;Laerm;57637;49.272;8.590;2023-12-20T08:46:11;51.40;49.45;54.03;;
70245;Laerm;57637;49.272;8.590;2023-12-20T08:48:37;52.33;49.82;55.98;;
70245;Laerm;57637;49.272;8.590;2023-12-20T08:51:02;52.65;50.47;54.89;;
70245;Laerm;57637;49.272;8.590;2023-12-20T08:53:28;52.08;50.15;54.52;;
70245;Laerm;57637;49.272;8.590;2023-12-20T08:55:53;52.07;50.25;54.16;;
70245;Laerm;57637;49.272;8.590;2023-12-20T08:58:19;52.77;50.64;55.05;;
70245;Laerm;57637;49.272;8.590;2023-12-20T09:00:45;53.10;50.78;55.62;;
70245;Laerm;57637;49.272;8.590;2023-12-20T09:03:10;53.19;51.01;55.39;;
70245;Laerm;57637;49.272;8.590;2023-12-20T09:05:37;53.22;50.98;55.67;;
70245;Laerm;57637;49.272;8.590;2023-12-20T09:08:02;53.68;51.34;56.13;;
70245;Laerm;57637;49.272;8.590;2023-12-20T09:10:28;53.13;51.12;56.18;;
70245;Laerm;57637;49.272;8.590;2023-12-20T09:12:54;53.62;51.48;55.81;;
70245;Laerm;57637;49.272;8.590;2023-12-20T09:15:24;53.67;51.53;55.90;;
70245;Laerm;57637;49.272;8.590;2023-12-20T09:17:50;53.71;51.75;56.51;;
70245;Laerm;57637;49.272;8.590;2023-12-20T09:20:31;53.85;51.57;56.57;;
70245;Laerm;57637;49.272;8.590;2023-12-20T09:22:56;54.30;52.24;56.46;;
70245;Laerm;57637;49.272;8.590;2023-12-20T09:25:37;54.32;52.23;56.27;;
70245;Laerm;57637;49.272;8.590;2023-12-20T09:28:02;54.36;52.14;56.83;;
70245;Laerm;57637;49.272;8.590;2023-12-20T09:30:32;54.36;52.29;56.57;;
70245;Laerm;57637;49.272;8.590;2023-12-20T09:32:57;54.25;51.98;56.19;;
70245;Laerm;57637;49.272;8.590;2023-12-20T09:35:42;54.45;52.57;56.96;;
70245;Laerm;57637;49.272;8.590;2023-12-20T09:38:09;54.45;52.54;56.65;;
70245;Laerm;57637;49.272;8.590;2023-12-20T09:40:36;54.47;52.22;56.53;;
70245;Laerm;57637;49.272;8.590;2023-12-20T09:43:11;54.74;52.66;56.97;;
70245;Laerm;57637;49.272;8.590;2023-12-20T09:45:39;54.74;52.86;57.02;;
70245;Laerm;57637;49.272;8.590;2023-12-20T09:48:07;54.71;52.81;56.77;;
70245;Laerm;57637;49.272;8.590;2023-12-20T09:50:32;54.61;52.55;56.95;;
70245;Laerm;57637;49.272;8.590;2023-12-20T09:53:01;54.98;52.98;57.75;;
70245;Laerm;57637;49.272;8.590;2023-12-20T09:55:28;55.16;53.36;57.18;;
70245;Laerm;57637;49.272;8.590;2023-12-20T09:57:55;55.20;53.49;57.37;;
70245;Laerm;57637;49.272;8.590;2023-12-20T10:00:21;55.01;52.92;57.54;;
70245;Laerm;57637;49.272;8.590;2023-12-20T10:03:00;55.14;53.15;57.23;;
70245;Laerm;57637;49.272;8.590;2023-12-20T10:05:33;55.23;52.97;57.33;;
70245;Laerm;57637;49.272;8.590;2023-12-20T10:08:00;55.26;53.36;57.78;;
70245;Laerm;57637;49.272;8.590;2023-12-20T10:10:26;55.18;53.23;57.33;;
70245;Laerm;57637;49.272;8.590;2023-12-20T10:13:05;55.35;53.16;57.20;;
70245;Laerm;57637;49.272;8.590;2023-12-20T10:15:32;55.45;53.53;57.65;;
70245;Laerm;57637;49.272;8.590;2023-12-20T10:17:58;55.59;53.89;57.49;;
70245;Laerm;57637;49.272;8.590;2023-12-20T10:20:24;55.68;53.94;58.05;;
70245;Laerm;57637;49.272;8.590;2023-12-20T10:22:49;55.41;52.74;57.72;;
70245;Laerm;57637;49.272;8.590;2023-12-20T10:25:15;55.34;53.33;57.69;;
70245;Laerm;57637;49.272;8.590;2023-12-20T10:27:40;55.32;53.26;57.47;;
70245;Laerm;57637;49.272;8.590;2023-12-20T10:30:06;55.47;53.45;57.91;;
70245;Laerm;57637;49.272;8.590;2023-12-20T10:32:31;55.53;53.39;57.98;;
70245;Laerm;57637;49.272;8.590;2023-12-20T10:34:57;55.73;53.70;57.53;;
70245;Laerm;57637;49.272;8.590;2023-12-20T10:37:24;55.59;53.16;57.90;;
70245;Laerm;57637;49.272;8.590;2023-12-20T10:39:51;55.58;53.46;57.65;;
70245;Laerm;57637;49.272;8.590;2023-12-20T10:42:19;55.61;53.23;57.95;;
70245;Laerm;57637;49.272;8.590;2023-12-20T10:44:46;55.96;54.17;58.26;;
70245;Laerm;57637;49.272;8.590;2023-12-20T10:47:13;55.77;53.38;58.07;;
70245;Laerm;57637;49.272;8.590;2023-12-20T10:49:39;56.07;54.23;58.37;;
70245;Laerm;57637;49.272;8.590;2023-12-20T10:52:05;56.01;53.88;58.12;;
70245;Laerm;57637;49.272;8.590;2023-12-20T10:54:31;55.98;53.87;57.94;;
70245;Laerm;57637;49.272;8.590;2023-12-20T10:56:57;56.02;53.91;58.02;;
70245;Laerm;57637;49.272;8.590;2023-12-20T10:59:24;56.08;53.85;58.04;;
70245;Laerm;57637;49.272;8.590;2023-12-20T11:01:50;56.12;53.83;58.30;;
70245;Laerm;57637;49.272;8.590;2023-12-20T11:05:14;56.22;54.22;58.28;;
70245;Laerm;57637;49.272;8.590;2023-12-20T11:07:25;55.93;53.83;58.16;;
70245;Laerm;57637;49.272;8.590;2023-12-20T11:10:01;55.80;53.65;57.69;;
70245;Laerm;57637;49.272;8.590;2023-12-20T11:12:37;55.90;53.95;58.07;;
70245;Laerm;57637;49.272;8.590;2023-12-20T11:15:05;55.65;53.53;57.95;;
70245;Laerm;57637;49.272;8.590;2023-12-20T11:17:32;55.21;53.34;56.99;;
70245;Laerm;57637;49.272;8.590;2023-12-20T11:22:25;54.93;53.10;56.48;;
70245;Laerm;57637;49.272;8.590;2023-12-20T11:24:52;55.27;53.40;56.88;;
70245;Laerm;57637;49.272;8.590;2023-12-20T11:27:19;55.28;53.37;61.21;;
70245;Laerm;57637;49.272;8.590;2023-12-20T11:29:52;55.29;53.69;57.09;;
70245;Laerm;57637;49.272;8.590;2023-12-20T11:34:58;55.32;53.67;59.96;;
70245;Laerm;57637;49.272;8.590;2023-12-20T11:37:31;55.52;53.69;57.43;;
70245;Laerm;57637;49.272;8.590;2023-12-20T11:40:07;55.58;53.52;57.45;;
70245;Laerm;57637;49.272;8.590;2023-12-20T11:42:38;55.63;53.84;57.56;;
70245;Laerm;57637;49.272;8.590;2023-12-20T11:45:05;55.65;53.57;60.36;;
70245;Laerm;57637;49.272;8.590;2023-12-20T11:47:31;55.32;53.45;57.31;;
70245;Laerm;57637;49.272;8.590;2023-12-20T11:49:57;55.15;53.46;56.86;;
70245;Laerm;57637;49.272;8.590;2023-12-20T11:52:22;55.42;53.53;57.16;;
70245;Laerm;57637;49.272;8.590;2023-12-20T11:54:47;55.49;53.84;57.37;;
70245;Laerm;57637;49.272;8.590;2023-12-20T11:57:13;55.62;53.96;57.47;;
70245;Laerm;57637;49.272;8.590;2023-12-20T11:59:39;55.34;53.71;57.06;;
70245;Laerm;57637;49.272;8.590;2023-12-20T12:02:04;55.09;53.47;61.02;;
70245;Laerm;57637;49.272;8.590;2023-12-20T12:04:29;55.01;53.38;56.75;;
70245;Laerm;57637;49.272;8.590;2023-12-20T12:06:55;55.03;53.52;56.66;;
70245;Laerm;57637;49.272;8.590;2023-12-20T12:09:20;54.98;53.43;56.80;;
70245;Laerm;57637;49.272;8.590;2023-12-20T12:11:46;55.02;53.40;56.45;;
70245;Laerm;57637;49.272;8.590;2023-12-20T12:14:11;55.15;53.52;56.73;;
70245;Laerm;57637;49.272;8.590;2023-12-20T12:16:37;55.17;53.46;56.58;;
70245;Laerm;57637;49.272;8.590;2023-12-20T12:19:02;55.16;53.22;56.81;;
70245;Laerm;57637;49.272;8.590;2023-12-20T12:21:29;55.14;53.71;56.71;;
70245;Laerm;57637;49.272;8.590;2023-12-20T12:24:06;55.05;53.16;57.06;;
70245;Laerm;57637;49.272;8.590;2023-12-20T12:26:31;55.01;53.49;56.50;;
70245;Laerm;57637;49.272;8.590;2023-12-20T12:28:57;54.76;52.82;56.55;;
70245;Laerm;57637;49.272;8.590;2023-12-20T12:31:23;54.86;53.17;56.58;;
70245;Laerm;57637;49.272;8.590;2023-12-20T12:33:50;55.00;53.44;56.69;;
70245;Laerm;57637;49.272;8.590;2023-12-20T12:36:16;55.03;53.47;58.11;;
70245;Laerm;57637;49.272;8.590;2023-12-20T12:38:43;55.13;53.23;59.86;;
70245;Laerm;57637;49.272;8.590;2023-12-20T12:41:08;55.03;53.33;56.74;;
70245;Laerm;57637;49.272;8.590;2023-12-20T12:43:35;54.91;53.38;56.48;;
70245;Laerm;57637;49.272;8.590;2023-12-20T12:46:01;54.82;53.36;56.36;;
70245;Laerm;57637;49.272;8.590;2023-12-20T12:48:26;54.71;53.30;56.37;;
70245;Laerm;57637;49.272;8.590;2023-12-20T12:50:53;54.70;53.04;56.22;;
70245;Laerm;57637;49.272;8.590;2023-12-20T12:53:19;54.84;53.17;56.35;;
70245;Laerm;57637;49.272;8.590;2023-12-20T12:55:45;54.91;53.15;56.66;;
70245;Laerm;57637;49.272;8.590;2023-12-20T12:58:11;54.88;53.21;56.40;;
70245;Laerm;57637;49.272;8.590;2023-12-20T13:00:36;54.91;53.31;56.47;;
70245;Laerm;57637;49.272;8.590;2023-12-20T13:03:02;55.04;52.88;57.10;;
70245;Laerm;57637;49.272;8.590;2023-12-20T13:05:29;54.81;53.27;56.20;;
70245;Laerm;57637;49.272;8.590;2023-12-20T13:07:54;54.88;53.11;56.97;;
70245;Laerm;57637;49.272;8.590;2023-12-20T13:10:20;54.99;53.11;57.39;;
70245;Laerm;57637;49.272;8.590;2023-12-20T13:12:45;54.86;53.15;59.10;;
70245;Laerm;57637;49.272;8.590;2023-12-20T13:15:10;54.77;53.05;56.60;;
70245;Laerm;57637;49.272;8.590;2023-12-20T13:17:36;54.76;52.82;56.13;;
70245;Laerm;57637;49.272;8.590;2023-12-20T13:20:02;54.80;53.20;56.50;;
70245;Laerm;57637;49.272;8.590;2023-12-20T13:22:28;54.91;53.03;56.43;;
70245;Laerm;57637;49.272;8.590;2023-12-20T13:24:53;54.69;53.15;56.29;;
70245;Laerm;57637;49.272;8.590;2023-12-20T13:27:19;54.68;53.06;56.37;;
70245;Laerm;57637;49.272;8.590;2023-12-20T13:29:44;54.76;52.54;59.86;;
70245;Laerm;57637;49.272;8.590;2023-12-20T13:32:09;54.72;52.72;56.53;;
70245;Laerm;57637;49.272;8.590;2023-12-20T13:34:35;54.73;52.78;56.27;;
70245;Laerm;57637;49.272;8.590;2023-12-20T13:37:00;54.75;53.26;56.71;;
70245;Laerm;57637;49.272;8.590;2023-12-20T13:39:26;54.59;52.88;56.07;;
70245;Laerm;57637;49.272;8.590;2023-12-20T13:41:51;54.51;52.99;56.06;;
70245;Laerm;57637;49.272;8.590;2023-12-20T13:44:20;54.51;53.00;56.33;;
70245;Laerm;57637;49.272;8.590;2023-12-20T13:46:45;54.43;52.80;55.84;;
70245;Laerm;57637;49.272;8.590;2023-12-20T13:49:11;54.45;52.73;55.92;;
70245;Laerm;57637;49.272;8.590;2023-12-20T13:51:37;54.49;52.95;55.89;;
70245;Laerm;57637;49.272;8.590;2023-12-20T13:54:03;54.57;52.47;59.50;;
70245;Laerm;57637;49.272;8.590;2023-12-20T13:56:29;54.44;52.55;56.06;;